sensor_id;sensor_type;location;lat;lon;timestamp;pressure;altitude;pressure_sealevel;temperature;humidity
44531;BME280;30240;47.418;0.700;2023-02-04T00:01:53;102483.5205078125;;;8.81;90.15
44531;BME280;30240;47.418;0.700;2023-02-04T00:04:18;102483.89892578125;;;8.72;90.47
44531;BME280;30240;47.418;0.700;2023-02-04T00:06:43;102478.35693359375;;;8.69;90.51
44531;BME280;30240;47.418;0.700;2023-02-04T00:09:08;102478.35693359375;;;8.69;90.51
44531;BME280;30240;47.418;0.700;2023-02-04T00:11:33;102483.447265625;;;8.72;90.58
44531;BME280;30240;47.418;0.700;2023-02-04T00:13:58;102486.083984375;;;8.73;90.47
44531;BME280;30240;47.418;0.700;2023-02-04T00:16:23;102486.80419921875;;;8.7;90.64
44531;BME280;30240;47.418;0.700;2023-02-04T00:18:48;102480.810546875;;;8.62;90.9
44531;BME280;30240;47.418;0.700;2023-02-04T00:21:13;102480.810546875;;;8.62;90.9
44531;BME280;30240;47.418;0.700;2023-02-04T00:23:38;102477.45361328125;;;8.67;90.82
44531;BME280;30240;47.418;0.700;2023-02-04T00:26:04;102470.56884765625;;;8.6;90.96
44531;BME280;30240;47.418;0.700;2023-02-04T00:28:29;102470.361328125;;;8.56;91.13
44531;BME280;30240;47.418;0.700;2023-02-04T00:30:54;102473.681640625;;;8.65;90.98
44531;BME280;30240;47.418;0.700;2023-02-04T00:33:18;102471.044921875;;;8.67;90.75
44531;BME280;30240;47.418;0.700;2023-02-04T00:35:43;102471.044921875;;;8.67;90.75
44531;BME280;30240;47.418;0.700;2023-02-04T00:38:08;102459.9365234375;;;8.53;91.15
44531;BME280;30240;47.418;0.700;2023-02-04T00:40:33;102455.7861328125;;;8.42;91.43
44531;BME280;30240;47.418;0.700;2023-02-04T00:42:58;102457.03125;;;8.49;91.33
44531;BME280;30240;47.418;0.700;2023-02-04T00:45:24;102461.767578125;;;8.59;90.76
44531;BME280;30240;47.418;0.700;2023-02-04T00:47:48;102461.767578125;;;8.59;90.76
44531;BME280;30240;47.418;0.700;2023-02-04T00:50:14;102459.31396484375;;;8.7;90.57
44531;BME280;30240;47.418;0.700;2023-02-04T00:52:39;102452.4169921875;;;8.67;90.64
44531;BME280;30240;47.418;0.700;2023-02-04T00:55:04;102452.392578125;;;8.55;90.96
44531;BME280;30240;47.418;0.700;2023-02-04T00:57:29;102448.37646484375;;;8.53;91.2
44531;BME280;30240;47.418;0.700;2023-02-04T00:59:54;102448.37646484375;;;8.53;91.2
44531;BME280;30240;47.418;0.700;2023-02-04T01:02:18;102444.6044921875;;;8.53;91.13
44531;BME280;30240;47.418;0.700;2023-02-04T01:04:44;102440.52734375;;;8.66;90.83
44531;BME280;30240;47.418;0.700;2023-02-04T01:07:09;102444.23828125;;;8.53;91.08
44531;BME280;30240;47.418;0.700;2023-02-04T01:09:33;102443.88427734375;;;8.46;91.43
44531;BME280;30240;47.418;0.700;2023-02-04T01:11:59;102443.88427734375;;;8.46;91.43
44531;BME280;30240;47.418;0.700;2023-02-04T01:14:24;102441.05224609375;;;8.48;91.43
44531;BME280;30240;47.418;0.700;2023-02-04T01:16:49;102436.572265625;;;8.46;91.62
44531;BME280;30240;47.418;0.700;2023-02-04T01:19:14;102441.30859375;;;8.46;91.65
44531;BME280;30240;47.418;0.700;2023-02-04T01:21:39;102447.412109375;;;8.46;91.62
44531;BME280;30240;47.418;0.700;2023-02-04T01:24:04;102447.412109375;;;8.46;91.62
44531;BME280;30240;47.418;0.700;2023-02-04T01:26:29;102451.318359375;;;8.48;91.74
44531;BME280;30240;47.418;0.700;2023-02-04T01:28:53;102451.28173828125;;;8.46;91.69
44531;BME280;30240;47.418;0.700;2023-02-04T01:31:19;102450.15869140625;;;8.38;91.93
44531;BME280;30240;47.418;0.700;2023-02-04T01:33:44;102448.876953125;;;8.39;91.72
44531;BME280;30240;47.418;0.700;2023-02-04T01:36:09;102448.876953125;;;8.39;91.72
44531;BME280;30240;47.418;0.700;2023-02-04T01:38:34;102449.755859375;;;8.35;91.8
44531;BME280;30240;47.418;0.700;2023-02-04T01:40:59;102453.90625;;;8.39;91.81
44531;BME280;30240;47.418;0.700;2023-02-04T01:43:24;102450.2685546875;;;8.3;92.07
44531;BME280;30240;47.418;0.700;2023-02-04T01:45:49;102454.30908203125;;;8.34;92.2
44531;BME280;30240;47.418;0.700;2023-02-04T01:48:14;102454.30908203125;;;8.34;92.2
44531;BME280;30240;47.418;0.700;2023-02-04T01:50:39;102456.8359375;;;8.44;92.01
44531;BME280;30240;47.418;0.700;2023-02-04T01:53:04;102448.98681640625;;;8.39;91.91
44531;BME280;30240;47.418;0.700;2023-02-04T01:55:31;102445.556640625;;;8.39;92.13
44531;BME280;30240;47.418;0.700;2023-02-04T01:57:54;102450.40283203125;;;8.42;91.88
44531;BME280;30240;47.418;0.700;2023-02-04T02:00:23;102450.40283203125;;;8.42;91.88
44531;BME280;30240;47.418;0.700;2023-02-04T02:02:45;102457.97119140625;;;8.48;91.92
44531;BME280;30240;47.418;0.700;2023-02-04T02:05:10;102452.099609375;;;8.45;91.84
44531;BME280;30240;47.418;0.700;2023-02-04T02:07:34;102450.15869140625;;;8.34;92.28
44531;BME280;30240;47.418;0.700;2023-02-04T02:09:58;102453.5400390625;;;8.31;92.21
44531;BME280;30240;47.418;0.700;2023-02-04T02:12:23;102452.734375;;;8.28;92.45
44531;BME280;30240;47.418;0.700;2023-02-04T02:14:49;102452.734375;;;8.28;92.45
44531;BME280;30240;47.418;0.700;2023-02-04T02:17:14;102443.505859375;;;8.17;92.74
44531;BME280;30240;47.418;0.700;2023-02-04T02:19:39;102447.1923828125;;;8.21;92.84
44531;BME280;30240;47.418;0.700;2023-02-04T02:22:06;102453.41796875;;;8.24;92.78
44531;BME280;30240;47.418;0.700;2023-02-04T02:24:30;102448.681640625;;;8.32;92.65
44531;BME280;30240;47.418;0.700;2023-02-04T02:26:55;102448.681640625;;;8.32;92.65
44531;BME280;30240;47.418;0.700;2023-02-04T02:29:19;102441.796875;;;8.18;92.95
44531;BME280;30240;47.418;0.700;2023-02-04T02:31:44;102445.32470703125;;;8.25;92.91
44531;BME280;30240;47.418;0.700;2023-02-04T02:34:09;102441.650390625;;;8.31;92.81
44531;BME280;30240;47.418;0.700;2023-02-04T02:36:34;102431.54296875;;;8.27;92.99
44531;BME280;30240;47.418;0.700;2023-02-04T02:38:59;102431.54296875;;;8.27;92.99
44531;BME280;30240;47.418;0.700;2023-02-04T02:41:24;102431.0302734375;;;8.34;92.76
44531;BME280;30240;47.418;0.700;2023-02-04T02:43:49;102428.4423828125;;;8.3;92.79
44531;BME280;30240;47.418;0.700;2023-02-04T02:46:13;102428.1982421875;;;8.31;92.86
44531;BME280;30240;47.418;0.700;2023-02-04T02:48:38;102429.78515625;;;8.31;92.85
44531;BME280;30240;47.418;0.700;2023-02-04T02:51:04;102429.78515625;;;8.31;92.85
44531;BME280;30240;47.418;0.700;2023-02-04T02:53:29;102431.1767578125;;;8.21;92.96
44531;BME280;30240;47.418;0.700;2023-02-04T02:55:53;102433.55712890625;;;8.17;93.17
44531;BME280;30240;47.418;0.700;2023-02-04T02:58:22;102438.63525390625;;;8.15;93.21
44531;BME280;30240;47.418;0.700;2023-02-04T03:00:44;102435.64453125;;;8.14;93.35
44531;BME280;30240;47.418;0.700;2023-02-04T03:03:12;102435.64453125;;;8.14;93.35
44531;BME280;30240;47.418;0.700;2023-02-04T03:05:36;102434.8876953125;;;8.14;93.25
44531;BME280;30240;47.418;0.700;2023-02-04T03:07:59;102427.94189453125;;;8.14;93.16
44531;BME280;30240;47.418;0.700;2023-02-04T03:10:24;102430.322265625;;;8.21;93.09
44531;BME280;30240;47.418;0.700;2023-02-04T03:12:49;102433.92333984375;;;8.14;93.13
44531;BME280;30240;47.418;0.700;2023-02-04T03:15:14;102433.92333984375;;;8.14;93.13
44531;BME280;30240;47.418;0.700;2023-02-04T03:17:39;102433.154296875;;;8.13;93.2
44531;BME280;30240;47.418;0.700;2023-02-04T03:20:04;102427.50244140625;;;8.18;93.17
44531;BME280;30240;47.418;0.700;2023-02-04T03:22:29;102431.005859375;;;8.15;93.01
44531;BME280;30240;47.418;0.700;2023-02-04T03:24:54;102431.7138671875;;;8.32;92.77
44531;BME280;30240;47.418;0.700;2023-02-04T03:27:19;102431.7138671875;;;8.32;92.77
44531;BME280;30240;47.418;0.700;2023-02-04T03:29:44;102433.82568359375;;;8.25;92.5
44531;BME280;30240;47.418;0.700;2023-02-04T03:32:09;102430.33447265625;;;8.15;92.82
44531;BME280;30240;47.418;0.700;2023-02-04T03:34:34;102431.26220703125;;;8.06;93.02
44531;BME280;30240;47.418;0.700;2023-02-04T03:36:59;102430.70068359375;;;8.07;92.88
44531;BME280;30240;47.418;0.700;2023-02-04T03:39:24;102433.82568359375;;;8.08;92.7
44531;BME280;30240;47.418;0.700;2023-02-04T03:41:48;102433.82568359375;;;8.08;92.7
44531;BME280;30240;47.418;0.700;2023-02-04T03:44:14;102432.3486328125;;;8.17;92.43
44531;BME280;30240;47.418;0.700;2023-02-04T03:46:38;102434.65576171875;;;8.22;91.69
44531;BME280;30240;47.418;0.700;2023-02-04T03:49:04;102436.87744140625;;;8.2;91.44
44531;BME280;30240;47.418;0.700;2023-02-04T03:51:29;102436.51123046875;;;8.24;91.41
44531;BME280;30240;47.418;0.700;2023-02-04T03:53:53;102436.51123046875;;;8.24;91.41
44531;BME280;30240;47.418;0.700;2023-02-04T03:56:18;102435.2783203125;;;8.18;91.55
44531;BME280;30240;47.418;0.700;2023-02-04T03:58:43;102435.77880859375;;;8.17;91.57
44531;BME280;30240;47.418;0.700;2023-02-04T04:01:08;102442.041015625;;;8.27;91.55
44531;BME280;30240;47.418;0.700;2023-02-04T04:03:33;102442.32177734375;;;8.41;91.3
44531;BME280;30240;47.418;0.700;2023-02-04T04:05:59;102442.32177734375;;;8.41;91.3
44531;BME280;30240;47.418;0.700;2023-02-04T04:08:24;102444.677734375;;;8.55;90.7
44531;BME280;30240;47.418;0.700;2023-02-04T04:10:48;102446.15478515625;;;8.39;90.72
44531;BME280;30240;47.418;0.700;2023-02-04T04:13:13;102449.96337890625;;;8.27;91.28
44531;BME280;30240;47.418;0.700;2023-02-04T04:15:38;102445.73974609375;;;8.2;91.37
44531;BME280;30240;47.418;0.700;2023-02-04T04:18:04;102445.73974609375;;;8.2;91.37
44531;BME280;30240;47.418;0.700;2023-02-04T04:20:29;102456.93359375;;;8.28;91.2
44531;BME280;30240;47.418;0.700;2023-02-04T04:22:54;102453.662109375;;;8.27;91.0
44531;BME280;30240;47.418;0.700;2023-02-04T04:25:18;102458.4716796875;;;8.15;91.21
44531;BME280;30240;47.418;0.700;2023-02-04T04:27:43;102457.2509765625;;;8.13;91.45
44531;BME280;30240;47.418;0.700;2023-02-04T04:30:10;102457.2509765625;;;8.13;91.45
44531;BME280;30240;47.418;0.700;2023-02-04T04:32:34;102457.8369140625;;;8.17;91.41
44531;BME280;30240;47.418;0.700;2023-02-04T04:34:58;102457.91015625;;;8.24;91.18
44531;BME280;30240;47.418;0.700;2023-02-04T04:37:24;102456.97021484375;;;8.35;91.03
44531;BME280;30240;47.418;0.700;2023-02-04T04:39:49;102453.6865234375;;;8.44;90.88
44531;BME280;30240;47.418;0.700;2023-02-04T04:42:13;102453.6865234375;;;8.44;90.88
44531;BME280;30240;47.418;0.700;2023-02-04T04:44:39;102458.4228515625;;;8.44;90.88
44531;BME280;30240;47.418;0.700;2023-02-04T04:47:03;102456.14013671875;;;8.15;91.38
44531;BME280;30240;47.418;0.700;2023-02-04T04:49:28;102450.57373046875;;;8.06;91.71
44531;BME280;30240;47.418;0.700;2023-02-04T04:51:53;102453.91845703125;;;8.1;91.68
44531;BME280;30240;47.418;0.700;2023-02-04T04:54:18;102453.91845703125;;;8.1;91.68
44531;BME280;30240;47.418;0.700;2023-02-04T04:56:43;102452.16064453125;;;8.11;91.53
44531;BME280;30240;47.418;0.700;2023-02-04T04:59:08;102459.31396484375;;;8.14;91.44
44531;BME280;30240;47.418;0.700;2023-02-04T05:01:33;102463.90380859375;;;8.13;91.29
44531;BME280;30240;47.418;0.700;2023-02-04T05:03:58;102464.07470703125;;;8.15;91.42
44531;BME280;30240;47.418;0.700;2023-02-04T05:06:24;102464.07470703125;;;8.15;91.42
44531;BME280;30240;47.418;0.700;2023-02-04T05:08:48;102454.1259765625;;;8.15;91.22
44531;BME280;30240;47.418;0.700;2023-02-04T05:11:13;102458.056640625;;;8.13;91.6
44531;BME280;30240;47.418;0.700;2023-02-04T05:13:38;102459.716796875;;;8.14;91.4
44531;BME280;30240;47.418;0.700;2023-02-04T05:16:04;102457.01904296875;;;8.24;91.14
44531;BME280;30240;47.418;0.700;2023-02-04T05:18:28;102453.43017578125;;;8.17;91.39
44531;BME280;30240;47.418;0.700;2023-02-04T05:20:53;102453.43017578125;;;8.17;91.39
44531;BME280;30240;47.418;0.700;2023-02-04T05:23:18;102449.45068359375;;;8.17;91.39
44531;BME280;30240;47.418;0.700;2023-02-04T05:25:43;102451.6357421875;;;8.1;91.47
44531;BME280;30240;47.418;0.700;2023-02-04T05:28:09;102454.78515625;;;8.13;91.56
44531;BME280;30240;47.418;0.700;2023-02-04T05:30:33;102455.224609375;;;8.24;91.21
44531;BME280;30240;47.418;0.700;2023-02-04T05:32:58;102455.224609375;;;8.24;91.21
44531;BME280;30240;47.418;0.700;2023-02-04T05:35:23;102458.88671875;;;8.22;90.92
44531;BME280;30240;47.418;0.700;2023-02-04T05:37:49;102454.8583984375;;;8.27;91.04
44531;BME280;30240;47.418;0.700;2023-02-04T05:40:14;102453.06396484375;;;8.31;91.04
44531;BME280;30240;47.418;0.700;2023-02-04T05:42:39;102454.57763671875;;;8.45;90.58
44531;BME280;30240;47.418;0.700;2023-02-04T05:45:04;102454.57763671875;;;8.45;90.58
44531;BME280;30240;47.418;0.700;2023-02-04T05:47:28;102451.8310546875;;;8.28;90.97
44531;BME280;30240;47.418;0.700;2023-02-04T05:49:53;102447.49755859375;;;8.11;91.72
44531;BME280;30240;47.418;0.700;2023-02-04T05:52:19;102449.01123046875;;;8.1;91.74
44531;BME280;30240;47.418;0.700;2023-02-04T05:54:43;102451.91650390625;;;8.01;91.9
44531;BME280;30240;47.418;0.700;2023-02-04T05:57:08;102451.91650390625;;;8.01;91.9
44531;BME280;30240;47.418;0.700;2023-02-04T05:59:33;102448.44970703125;;;8.06;91.75
44531;BME280;30240;47.418;0.700;2023-02-04T06:01:58;102448.5107421875;;;8.07;91.93
44531;BME280;30240;47.418;0.700;2023-02-04T06:04:23;102450.96435546875;;;8.03;91.87
44531;BME280;30240;47.418;0.700;2023-02-04T06:06:48;102457.99560546875;;;8.06;91.9
44531;BME280;30240;47.418;0.700;2023-02-04T06:09:13;102457.99560546875;;;8.06;91.9
44531;BME280;30240;47.418;0.700;2023-02-04T06:11:38;102449.6826171875;;;8.03;91.95
44531;BME280;30240;47.418;0.700;2023-02-04T06:14:03;102452.38037109375;;;8.01;91.98
44531;BME280;30240;47.418;0.700;2023-02-04T06:16:28;102457.53173828125;;;7.97;91.89
44531;BME280;30240;47.418;0.700;2023-02-04T06:18:53;102459.70458984375;;;8.06;91.9
44531;BME280;30240;47.418;0.700;2023-02-04T06:21:19;102459.70458984375;;;8.06;91.9
44531;BME280;30240;47.418;0.700;2023-02-04T06:23:44;102455.04150390625;;;7.97;92.0
44531;BME280;30240;47.418;0.700;2023-02-04T06:26:09;102451.611328125;;;8.01;92.21
44531;BME280;30240;47.418;0.700;2023-02-04T06:28:33;102456.005859375;;;8.0;92.24
44531;BME280;30240;47.418;0.700;2023-02-04T06:30:58;102455.5419921875;;;8.04;91.96
44531;BME280;30240;47.418;0.700;2023-02-04T06:33:23;102455.5419921875;;;8.04;91.96
44531;BME280;30240;47.418;0.700;2023-02-04T06:35:49;102459.87548828125;;;8.2;91.62
44531;BME280;30240;47.418;0.700;2023-02-04T06:38:13;102457.666015625;;;8.14;91.56
44531;BME280;30240;47.418;0.700;2023-02-04T06:40:38;102459.38720703125;;;8.14;91.55
44531;BME280;30240;47.418;0.700;2023-02-04T06:43:03;102457.53173828125;;;8.07;91.74
44531;BME280;30240;47.418;0.700;2023-02-04T06:45:28;102455.48095703125;;;8.0;91.91
44531;BME280;30240;47.418;0.700;2023-02-04T06:47:53;102455.48095703125;;;8.0;91.91
44531;BME280;30240;47.418;0.700;2023-02-04T06:50:18;102453.40576171875;;;8.01;92.04
44531;BME280;30240;47.418;0.700;2023-02-04T06:52:44;102456.28662109375;;;7.98;91.72
44531;BME280;30240;47.418;0.700;2023-02-04T06:55:08;102458.251953125;;;8.0;91.72
44531;BME280;30240;47.418;0.700;2023-02-04T06:57:33;102460.21728515625;;;8.03;91.59
44531;BME280;30240;47.418;0.700;2023-02-04T06:59:58;102460.21728515625;;;8.03;91.59
44531;BME280;30240;47.418;0.700;2023-02-04T07:02:23;102460.46142578125;;;8.07;91.32
44531;BME280;30240;47.418;0.700;2023-02-04T07:04:48;102462.20703125;;;8.06;91.33
44531;BME280;30240;47.418;0.700;2023-02-04T07:07:13;102466.2353515625;;;8.18;91.27
44531;BME280;30240;47.418;0.700;2023-02-04T07:09:38;102464.2822265625;;;8.1;91.24
44531;BME280;30240;47.418;0.700;2023-02-04T07:12:04;102464.2822265625;;;8.1;91.24
44531;BME280;30240;47.418;0.700;2023-02-04T07:14:28;102469.37255859375;;;8.2;91.33
44531;BME280;30240;47.418;0.700;2023-02-04T07:16:53;102467.2607421875;;;8.04;91.52
44531;BME280;30240;47.418;0.700;2023-02-04T07:19:18;102471.435546875;;;8.0;91.61
44531;BME280;30240;47.418;0.700;2023-02-04T07:21:43;102479.79736328125;;;8.03;91.69
44531;BME280;30240;47.418;0.700;2023-02-04T07:24:08;102479.79736328125;;;8.03;91.69
44531;BME280;30240;47.418;0.700;2023-02-04T07:26:33;102483.21533203125;;;8.15;91.47
44531;BME280;30240;47.418;0.700;2023-02-04T07:28:59;102481.72607421875;;;8.15;91.1
44531;BME280;30240;47.418;0.700;2023-02-04T07:31:24;102475.7080078125;;;8.1;91.48
44531;BME280;30240;47.418;0.700;2023-02-04T07:33:48;102479.39453125;;;8.04;91.47
44531;BME280;30240;47.418;0.700;2023-02-04T07:36:13;102479.39453125;;;8.04;91.47
44531;BME280;30240;47.418;0.700;2023-02-04T07:38:38;102478.45458984375;;;7.98;91.48
44531;BME280;30240;47.418;0.700;2023-02-04T07:41:04;102482.99560546875;;;8.1;91.19
44531;BME280;30240;47.418;0.700;2023-02-04T07:43:28;102481.54296875;;;8.04;91.42
44531;BME280;30240;47.418;0.700;2023-02-04T07:45:53;102486.26708984375;;;8.06;91.31
44531;BME280;30240;47.418;0.700;2023-02-04T07:48:18;102486.26708984375;;;8.06;91.31
44531;BME280;30240;47.418;0.700;2023-02-04T07:50:43;102491.05224609375;;;8.17;91.06
44531;BME280;30240;47.418;0.700;2023-02-04T07:53:08;102492.95654296875;;;8.27;90.74
44531;BME280;30240;47.418;0.700;2023-02-04T07:55:34;102497.3876953125;;;8.08;91.16
44531;BME280;30240;47.418;0.700;2023-02-04T07:57:58;102500.96435546875;;;8.14;91.36
44531;BME280;30240;47.418;0.700;2023-02-04T08:00:23;102500.96435546875;;;8.14;91.36
44531;BME280;30240;47.418;0.700;2023-02-04T08:02:49;102499.27978515625;;;8.22;91.09
44531;BME280;30240;47.418;0.700;2023-02-04T08:05:14;102494.15283203125;;;8.07;91.33
44531;BME280;30240;47.418;0.700;2023-02-04T08:07:38;102501.123046875;;;8.14;91.47
44531;BME280;30240;47.418;0.700;2023-02-04T08:10:04;102499.5361328125;;;8.04;91.64
44531;BME280;30240;47.418;0.700;2023-02-04T08:12:28;102499.5361328125;;;8.04;91.64
44531;BME280;30240;47.418;0.700;2023-02-04T08:14:53;102502.5146484375;;;8.13;91.53
44531;BME280;30240;47.418;0.700;2023-02-04T08:17:18;102504.296875;;;8.14;91.59
44531;BME280;30240;47.418;0.700;2023-02-04T08:19:43;102507.080078125;;;8.18;91.3
44531;BME280;30240;47.418;0.700;2023-02-04T08:22:08;102511.99951171875;;;8.38;90.87
44531;BME280;30240;47.418;0.700;2023-02-04T08:24:33;102507.275390625;;;8.24;91.22
44531;BME280;30240;47.418;0.700;2023-02-04T08:26:58;102507.275390625;;;8.24;91.22
44531;BME280;30240;47.418;0.700;2023-02-04T08:29:23;102506.73828125;;;8.25;91.18
44531;BME280;30240;47.418;0.700;2023-02-04T08:31:48;102512.2802734375;;;8.45;90.64
44531;BME280;30240;47.418;0.700;2023-02-04T08:34:13;102509.0576171875;;;8.45;90.54
44531;BME280;30240;47.418;0.700;2023-02-04T08:36:38;102510.51025390625;;;8.37;91.28
44531;BME280;30240;47.418;0.700;2023-02-04T08:39:03;102510.51025390625;;;8.37;91.28
44531;BME280;30240;47.418;0.700;2023-02-04T08:41:28;102515.07568359375;;;8.66;90.27
44531;BME280;30240;47.418;0.700;2023-02-04T08:43:53;102518.54248046875;;;8.49;90.61
44531;BME280;30240;47.418;0.700;2023-02-04T08:46:18;102519.189453125;;;8.59;90.63
44531;BME280;30240;47.418;0.700;2023-02-04T08:48:44;102528.4423828125;;;8.55;90.46
44531;BME280;30240;47.418;0.700;2023-02-04T08:51:08;102528.4423828125;;;8.55;90.46
44531;BME280;30240;47.418;0.700;2023-02-04T08:53:33;102524.609375;;;8.52;90.48
44531;BME280;30240;47.418;0.700;2023-02-04T08:55:58;102523.2177734375;;;8.62;90.63
44531;BME280;30240;47.418;0.700;2023-02-04T08:58:23;102523.5107421875;;;8.63;90.09
44531;BME280;30240;47.418;0.700;2023-02-04T09:00:48;102522.83935546875;;;8.67;90.15
44531;BME280;30240;47.418;0.700;2023-02-04T09:03:14;102522.83935546875;;;8.67;90.15
44531;BME280;30240;47.418;0.700;2023-02-04T09:05:38;102529.00390625;;;8.56;90.32
44531;BME280;30240;47.418;0.700;2023-02-04T09:08:03;102528.369140625;;;8.59;90.65
44531;BME280;30240;47.418;0.700;2023-02-04T09:10:29;102530.92041015625;;;8.5;90.81
44531;BME280;30240;47.418;0.700;2023-02-04T09:12:53;102527.9541015625;;;8.62;90.96
44531;BME280;30240;47.418;0.700;2023-02-04T09:15:18;102527.9541015625;;;8.62;90.96
44531;BME280;30240;47.418;0.700;2023-02-04T09:17:43;102528.94287109375;;;8.66;90.78
44531;BME280;30240;47.418;0.700;2023-02-04T09:20:09;102534.36279296875;;;8.56;90.63
44531;BME280;30240;47.418;0.700;2023-02-04T09:22:33;102538.61083984375;;;8.65;90.77
44531;BME280;30240;47.418;0.700;2023-02-04T09:24:58;102535.09521484375;;;8.87;89.71
44531;BME280;30240;47.418;0.700;2023-02-04T09:27:23;102535.09521484375;;;8.87;89.71
44531;BME280;30240;47.418;0.700;2023-02-04T09:29:48;102537.7685546875;;;9.08;89.5
44531;BME280;30240;47.418;0.700;2023-02-04T09:32:13;102548.08349609375;;;9.12;89.27
44531;BME280;30240;47.418;0.700;2023-02-04T09:34:38;102544.51904296875;;;8.81;90.08
44531;BME280;30240;47.418;0.700;2023-02-04T09:37:03;102548.92578125;;;9.15;89.34
44531;BME280;30240;47.418;0.700;2023-02-04T09:39:28;102548.92578125;;;9.15;89.34
44531;BME280;30240;47.418;0.700;2023-02-04T09:41:54;102545.10498046875;;;9.18;89.27
44531;BME280;30240;47.418;0.700;2023-02-04T09:44:21;102552.392578125;;;9.38;88.68
44531;BME280;30240;47.418;0.700;2023-02-04T09:46:46;102554.052734375;;;9.32;88.54
44531;BME280;30240;47.418;0.700;2023-02-04T09:49:09;102558.3251953125;;;9.15;89.08
44531;BME280;30240;47.418;0.700;2023-02-04T09:51:34;102557.18994140625;;;9.12;89.06
44531;BME280;30240;47.418;0.700;2023-02-04T09:54:04;102557.18994140625;;;9.12;89.06
44531;BME280;30240;47.418;0.700;2023-02-04T09:56:24;102557.75146484375;;;9.36;89.08
44531;BME280;30240;47.418;0.700;2023-02-04T09:58:49;102558.447265625;;;9.49;88.42
44531;BME280;30240;47.418;0.700;2023-02-04T10:01:15;102553.45458984375;;;9.46;88.11
44531;BME280;30240;47.418;0.700;2023-02-04T10:03:39;102560.302734375;;;9.67;87.65
44531;BME280;30240;47.418;0.700;2023-02-04T10:06:04;102560.302734375;;;9.67;87.65
44531;BME280;30240;47.418;0.700;2023-02-04T10:08:30;102555.0537109375;;;9.78;87.67
44531;BME280;30240;47.418;0.700;2023-02-04T10:10:54;102550.537109375;;;9.6;87.6
44531;BME280;30240;47.418;0.700;2023-02-04T10:13:21;102551.513671875;;;9.99;87.35
44531;BME280;30240;47.418;0.700;2023-02-04T10:15:44;102558.5205078125;;;10.02;86.97
44531;BME280;30240;47.418;0.700;2023-02-04T10:18:12;102558.5205078125;;;10.02;86.97
44531;BME280;30240;47.418;0.700;2023-02-04T10:20:33;102550.57373046875;;;9.88;87.13
44531;BME280;30240;47.418;0.700;2023-02-04T10:22:58;102555.126953125;;;10.09;86.18
44531;BME280;30240;47.418;0.700;2023-02-04T10:25:24;102554.00390625;;;10.16;85.82
44531;BME280;30240;47.418;0.700;2023-02-04T10:27:50;102560.595703125;;;10.06;86.11
44531;BME280;30240;47.418;0.700;2023-02-04T10:30:17;102560.595703125;;;10.06;86.11
44531;BME280;30240;47.418;0.700;2023-02-04T10:32:38;102558.154296875;;;9.95;86.9
44531;BME280;30240;47.418;0.700;2023-02-04T10:35:04;102559.77783203125;;;10.06;86.24
44531;BME280;30240;47.418;0.700;2023-02-04T10:37:29;102564.48974609375;;;10.06;86.05
44531;BME280;30240;47.418;0.700;2023-02-04T10:39:53;102569.0673828125;;;9.98;86.05
44531;BME280;30240;47.418;0.700;2023-02-04T10:42:20;102569.0673828125;;;9.98;86.05
44531;BME280;30240;47.418;0.700;2023-02-04T10:44:45;102571.44775390625;;;10.16;85.76
44531;BME280;30240;47.418;0.700;2023-02-04T10:47:16;102570.166015625;;;10.09;85.5
44531;BME280;30240;47.418;0.700;2023-02-04T10:49:34;102573.44970703125;;;10.2;85.36
44531;BME280;30240;47.418;0.700;2023-02-04T10:52:00;102574.8291015625;;;10.33;84.79
44531;BME280;30240;47.418;0.700;2023-02-04T10:54:25;102574.8291015625;;;10.33;84.79
44531;BME280;30240;47.418;0.700;2023-02-04T10:56:48;102580.01708984375;;;10.4;84.62
44531;BME280;30240;47.418;0.700;2023-02-04T10:59:21;102573.10791015625;;;10.34;84.89
44531;BME280;30240;47.418;0.700;2023-02-04T11:01:38;102574.32861328125;;;10.69;84.31
44531;BME280;30240;47.418;0.700;2023-02-04T11:04:07;102571.38671875;;;10.34;85.26
44531;BME280;30240;47.418;0.700;2023-02-04T11:06:28;102571.38671875;;;10.34;85.26
44531;BME280;30240;47.418;0.700;2023-02-04T11:08:54;102572.998046875;;;10.61;84.0
44531;BME280;30240;47.418;0.700;2023-02-04T11:11:21;102565.56396484375;;;10.93;82.91
44531;BME280;30240;47.418;0.700;2023-02-04T11:13:55;102562.12158203125;;;10.57;83.2
44531;BME280;30240;47.418;0.700;2023-02-04T11:13:58;102562.12158203125;;;10.57;83.2
44531;BME280;30240;47.418;0.700;2023-02-04T11:16:11;102564.27001953125;;;10.67;83.56
44531;BME280;30240;47.418;0.700;2023-02-04T11:18:44;102564.27001953125;;;10.67;83.56
44531;BME280;30240;47.418;0.700;2023-02-04T11:20:59;102557.01904296875;;;10.47;83.53
44531;BME280;30240;47.418;0.700;2023-02-04T11:23:30;102555.52978515625;;;10.65;83.11
44531;BME280;30240;47.418;0.700;2023-02-04T11:26:00;102557.2021484375;;;10.49;83.59
44531;BME280;30240;47.418;0.700;2023-02-04T11:28:15;102555.1513671875;;;10.76;82.68
44531;BME280;30240;47.418;0.700;2023-02-04T11:30:39;102554.67529296875;;;10.84;81.95
44531;BME280;30240;47.418;0.700;2023-02-04T11:33:05;102554.67529296875;;;10.84;81.95